sensor_id;sensor_type;location;lat;lon;timestamp;temperature;humidity
67897;DHT22;54698;48.428;9.964;2022-07-04T00:00:04;21.30;87.40
67897;DHT22;54698;48.428;9.964;2022-07-04T00:02:32;21.20;87.50
67897;DHT22;54698;48.428;9.964;2022-07-04T00:04:58;21.10;87.00
67897;DHT22;54698;48.428;9.964;2022-07-04T00:07:24;21.00;86.80
67897;DHT22;54698;48.428;9.964;2022-07-04T00:09:50;21.00;86.40
67897;DHT22;54698;48.428;9.964;2022-07-04T00:12:17;21.00;86.00
67897;DHT22;54698;48.428;9.964;2022-07-04T00:14:43;21.10;85.70
67897;DHT22;54698;48.428;9.964;2022-07-04T00:17:09;21.10;85.80
67897;DHT22;54698;48.428;9.964;2022-07-04T00:19:35;21.00;85.80
67897;DHT22;54698;48.428;9.964;2022-07-04T00:22:01;21.10;85.30
67897;DHT22;54698;48.428;9.964;2022-07-04T00:24:27;21.10;84.70
67897;DHT22;54698;48.428;9.964;2022-07-04T00:26:53;21.10;85.20
67897;DHT22;54698;48.428;9.964;2022-07-04T00:29:20;21.00;85.00
67897;DHT22;54698;48.428;9.964;2022-07-04T00:31:46;21.00;84.90
67897;DHT22;54698;48.428;9.964;2022-07-04T00:34:12;20.90;86.10
67897;DHT22;54698;48.428;9.964;2022-07-04T00:36:38;20.90;86.00
67897;DHT22;54698;48.428;9.964;2022-07-04T00:39:04;20.90;84.80
67897;DHT22;54698;48.428;9.964;2022-07-04T00:41:30;20.80;86.90
67897;DHT22;54698;48.428;9.964;2022-07-04T00:44:03;20.60;89.80
67897;DHT22;54698;48.428;9.964;2022-07-04T00:46:31;20.40;91.00
67897;DHT22;54698;48.428;9.964;2022-07-04T00:48:57;20.20;91.60
67897;DHT22;54698;48.428;9.964;2022-07-04T00:51:23;20.00;92.50
67897;DHT22;54698;48.428;9.964;2022-07-04T00:53:50;19.80;93.40
67897;DHT22;54698;48.428;9.964;2022-07-04T00:56:16;19.70;93.70
67897;DHT22;54698;48.428;9.964;2022-07-04T00:58:42;19.60;94.60
67897;DHT22;54698;48.428;9.964;2022-07-04T01:01:08;19.50;94.20
67897;DHT22;54698;48.428;9.964;2022-07-04T01:03:35;19.50;93.40
67897;DHT22;54698;48.428;9.964;2022-07-04T01:06:01;19.60;94.90
67897;DHT22;54698;48.428;9.964;2022-07-04T01:08:27;19.60;92.70
67897;DHT22;54698;48.428;9.964;2022-07-04T01:10:52;19.70;94.20
67897;DHT22;54698;48.428;9.964;2022-07-04T01:13:19;19.60;94.20
67897;DHT22;54698;48.428;9.964;2022-07-04T01:15:45;19.60;94.50
67897;DHT22;54698;48.428;9.964;2022-07-04T01:18:11;19.50;94.60
67897;DHT22;54698;48.428;9.964;2022-07-04T01:20:39;19.40;95.10
67897;DHT22;54698;48.428;9.964;2022-07-04T01:23:04;19.20;95.90
67897;DHT22;54698;48.428;9.964;2022-07-04T01:25:31;19.20;96.10
67897;DHT22;54698;48.428;9.964;2022-07-04T01:27:57;19.20;96.00
67897;DHT22;54698;48.428;9.964;2022-07-04T01:30:24;19.20;96.00
67897;DHT22;54698;48.428;9.964;2022-07-04T01:32:50;19.00;96.80
67897;DHT22;54698;48.428;9.964;2022-07-04T01:35:15;18.90;97.40
67897;DHT22;54698;48.428;9.964;2022-07-04T01:37:43;19.10;97.50
67897;DHT22;54698;48.428;9.964;2022-07-04T01:40:10;19.10;96.60
67897;DHT22;54698;48.428;9.964;2022-07-04T01:42:36;19.10;96.90
67897;DHT22;54698;48.428;9.964;2022-07-04T01:45:02;19.10;97.40
67897;DHT22;54698;48.428;9.964;2022-07-04T01:47:28;19.10;97.10
67897;DHT22;54698;48.428;9.964;2022-07-04T01:49:54;18.90;96.90
67897;DHT22;54698;48.428;9.964;2022-07-04T01:52:20;19.00;97.30
67897;DHT22;54698;48.428;9.964;2022-07-04T01:54:47;19.00;96.20
67897;DHT22;54698;48.428;9.964;2022-07-04T01:57:13;19.10;96.50
67897;DHT22;54698;48.428;9.964;2022-07-04T01:59:38;19.10;97.00
67897;DHT22;54698;48.428;9.964;2022-07-04T02:02:04;19.00;97.40
67897;DHT22;54698;48.428;9.964;2022-07-04T02:04:30;19.00;97.90
67897;DHT22;54698;48.428;9.964;2022-07-04T02:06:56;18.80;98.80
67897;DHT22;54698;48.428;9.964;2022-07-04T02:09:22;18.90;99.20
67897;DHT22;54698;48.428;9.964;2022-07-04T02:11:49;18.90;99.20
67897;DHT22;54698;48.428;9.964;2022-07-04T02:14:15;18.80;99.30
67897;DHT22;54698;48.428;9.964;2022-07-04T02:16:40;18.50;99.90
67897;DHT22;54698;48.428;9.964;2022-07-04T02:19:06;18.00;99.90
67897;DHT22;54698;48.428;9.964;2022-07-04T02:21:32;17.70;99.90
67897;DHT22;54698;48.428;9.964;2022-07-04T02:23:58;17.60;99.90
67897;DHT22;54698;48.428;9.964;2022-07-04T02:26:23;17.40;99.90
67897;DHT22;54698;48.428;9.964;2022-07-04T02:28:51;17.40;99.90
67897;DHT22;54698;48.428;9.964;2022-07-04T02:31:17;17.40;99.90
67897;DHT22;54698;48.428;9.964;2022-07-04T02:33:43;17.40;99.90
67897;DHT22;54698;48.428;9.964;2022-07-04T02:36:08;17.50;99.90
67897;DHT22;54698;48.428;9.964;2022-07-04T02:38:34;17.50;99.90
67897;DHT22;54698;48.428;9.964;2022-07-04T02:41:00;17.60;99.90
67897;DHT22;54698;48.428;9.964;2022-07-04T02:43:26;17.60;99.90
67897;DHT22;54698;48.428;9.964;2022-07-04T02:45:53;17.60;99.90
67897;DHT22;54698;48.428;9.964;2022-07-04T02:48:19;17.70;99.90
67897;DHT22;54698;48.428;9.964;2022-07-04T02:50:45;17.70;99.90
67897;DHT22;54698;48.428;9.964;2022-07-04T02:53:11;17.70;99.90
67897;DHT22;54698;48.428;9.964;2022-07-04T02:55:36;17.70;99.90
67897;DHT22;54698;48.428;9.964;2022-07-04T02:58:02;17.70;99.90
67897;DHT22;54698;48.428;9.964;2022-07-04T03:00:28;17.70;99.90
67897;DHT22;54698;48.428;9.964;2022-07-04T03:02:55;17.80;99.90
67897;DHT22;54698;48.428;9.964;2022-07-04T03:05:21;17.70;99.90
67897;DHT22;54698;48.428;9.964;2022-07-04T03:07:47;17.50;99.90
67897;DHT22;54698;48.428;9.964;2022-07-04T03:10:13;17.20;99.90
67897;DHT22;54698;48.428;9.964;2022-07-04T03:12:39;17.00;99.90
67897;DHT22;54698;48.428;9.964;2022-07-04T03:15:06;16.70;99.90
67897;DHT22;54698;48.428;9.964;2022-07-04T03:17:32;16.50;99.90
67897;DHT22;54698;48.428;9.964;2022-07-04T03:19:59;16.40;99.90
67897;DHT22;54698;48.428;9.964;2022-07-04T03:22:26;16.20;99.90
67897;DHT22;54698;48.428;9.964;2022-07-04T03:24:52;16.20;99.90
67897;DHT22;54698;48.428;9.964;2022-07-04T03:27:18;16.30;99.90
67897;DHT22;54698;48.428;9.964;2022-07-04T03:29:43;16.20;99.90
67897;DHT22;54698;48.428;9.964;2022-07-04T03:32:09;16.10;99.90
67897;DHT22;54698;48.428;9.964;2022-07-04T03:34:35;16.00;99.90
67897;DHT22;54698;48.428;9.964;2022-07-04T03:37:02;15.90;99.90
67897;DHT22;54698;48.428;9.964;2022-07-04T03:39:29;15.90;99.90
67897;DHT22;54698;48.428;9.964;2022-07-04T03:41:54;15.90;99.90
67897;DHT22;54698;48.428;9.964;2022-07-04T03:44:20;15.90;99.90
67897;DHT22;54698;48.428;9.964;2022-07-04T03:46:46;16.00;99.90
67897;DHT22;54698;48.428;9.964;2022-07-04T03:49:12;16.00;99.90
67897;DHT22;54698;48.428;9.964;2022-07-04T03:51:38;15.90;99.90
67897;DHT22;54698;48.428;9.964;2022-07-04T03:54:05;16.00;99.90
67897;DHT22;54698;48.428;9.964;2022-07-04T03:56:30;16.00;99.90
67897;DHT22;54698;48.428;9.964;2022-07-04T03:58:56;16.00;99.90
67897;DHT22;54698;48.428;9.964;2022-07-04T04:01:22;16.00;99.90
67897;DHT22;54698;48.428;9.964;2022-07-04T04:03:48;16.00;99.90
67897;DHT22;54698;48.428;9.964;2022-07-04T04:06:14;16.10;99.90
67897;DHT22;54698;48.428;9.964;2022-07-04T04:08:39;16.10;99.90
67897;DHT22;54698;48.428;9.964;2022-07-04T04:11:07;16.10;99.90
67897;DHT22;54698;48.428;9.964;2022-07-04T04:13:32;16.10;99.90
67897;DHT22;54698;48.428;9.964;2022-07-04T04:15:58;16.10;99.90
67897;DHT22;54698;48.428;9.964;2022-07-04T04:18:24;16.10;99.90
67897;DHT22;54698;48.428;9.964;2022-07-04T04:20:50;16.20;99.90
67897;DHT22;54698;48.428;9.964;2022-07-04T04:23:16;16.20;99.90
67897;DHT22;54698;48.428;9.964;2022-07-04T04:25:41;16.10;99.90
67897;DHT22;54698;48.428;9.964;2022-07-04T04:28:09;16.10;99.90
67897;DHT22;54698;48.428;9.964;2022-07-04T04:30:34;16.10;99.90
67897;DHT22;54698;48.428;9.964;2022-07-04T04:33:00;16.10;99.90
67897;DHT22;54698;48.428;9.964;2022-07-04T04:35:26;16.10;99.90
67897;DHT22;54698;48.428;9.964;2022-07-04T04:37:52;16.10;99.90
67897;DHT22;54698;48.428;9.964;2022-07-04T04:40:18;16.20;99.90
67897;DHT22;54698;48.428;9.964;2022-07-04T04:42:44;16.20;99.90
67897;DHT22;54698;48.428;9.964;2022-07-04T04:45:11;16.20;99.90
67897;DHT22;54698;48.428;9.964;2022-07-04T04:47:37;16.30;99.90
67897;DHT22;54698;48.428;9.964;2022-07-04T04:50:03;16.30;99.90
67897;DHT22;54698;48.428;9.964;2022-07-04T04:52:29;16.20;99.90
67897;DHT22;54698;48.428;9.964;2022-07-04T04:54:55;16.30;99.90
67897;DHT22;54698;48.428;9.964;2022-07-04T04:57:21;16.30;99.90
67897;DHT22;54698;48.428;9.964;2022-07-04T04:59:46;16.40;99.90
67897;DHT22;54698;48.428;9.964;2022-07-04T05:02:14;16.50;99.90
67897;DHT22;54698;48.428;9.964;2022-07-04T05:04:39;16.60;99.90
67897;DHT22;54698;48.428;9.964;2022-07-04T05:07:05;16.70;99.90
67897;DHT22;54698;48.428;9.964;2022-07-04T05:09:31;17.00;99.90
67897;DHT22;54698;48.428;9.964;2022-07-04T05:11:57;17.30;99.90
67897;DHT22;54698;48.428;9.964;2022-07-04T05:14:23;17.50;99.90
67897;DHT22;54698;48.428;9.964;2022-07-04T05:16:48;17.60;99.90
67897;DHT22;54698;48.428;9.964;2022-07-04T05:19:16;17.70;99.90
67897;DHT22;54698;48.428;9.964;2022-07-04T05:21:42;17.50;99.90
67897;DHT22;54698;48.428;9.964;2022-07-04T05:24:07;17.40;99.90
67897;DHT22;54698;48.428;9.964;2022-07-04T05:26:33;17.30;99.90
67897;DHT22;54698;48.428;9.964;2022-07-04T05:28:59;17.40;99.90
67897;DHT22;54698;48.428;9.964;2022-07-04T05:31:25;17.60;99.90
67897;DHT22;54698;48.428;9.964;2022-07-04T05:33:51;17.70;99.90
67897;DHT22;54698;48.428;9.964;2022-07-04T05:36:18;17.70;99.90
67897;DHT22;54698;48.428;9.964;2022-07-04T05:38:44;17.90;99.90
67897;DHT22;54698;48.428;9.964;2022-07-04T05:41:10;17.90;99.90
67897;DHT22;54698;48.428;9.964;2022-07-04T05:43:36;17.80;99.90
67897;DHT22;54698;48.428;9.964;2022-07-04T05:46:02;17.70;99.90
67897;DHT22;54698;48.428;9.964;2022-07-04T05:48:28;17.70;99.90
67897;DHT22;54698;48.428;9.964;2022-07-04T05:50:53;17.80;99.90
67897;DHT22;54698;48.428;9.964;2022-07-04T05:53:21;17.80;99.90
67897;DHT22;54698;48.428;9.964;2022-07-04T05:55:46;17.80;99.90
67897;DHT22;54698;48.428;9.964;2022-07-04T05:58:13;17.80;99.90
67897;DHT22;54698;48.428;9.964;2022-07-04T06:00:39;17.80;99.90
67897;DHT22;54698;48.428;9.964;2022-07-04T06:03:04;17.80;99.90
67897;DHT22;54698;48.428;9.964;2022-07-04T06:05:30;18.00;99.90
67897;DHT22;54698;48.428;9.964;2022-07-04T06:07:56;18.00;99.90
67897;DHT22;54698;48.428;9.964;2022-07-04T06:10:23;18.00;99.90
67897;DHT22;54698;48.428;9.964;2022-07-04T06:12:49;18.10;99.90
67897;DHT22;54698;48.428;9.964;2022-07-04T06:15:15;18.20;99.90
67897;DHT22;54698;48.428;9.964;2022-07-04T06:17:41;18.40;99.90
67897;DHT22;54698;48.428;9.964;2022-07-04T06:20:08;18.50;99.90
67897;DHT22;54698;48.428;9.964;2022-07-04T06:22:41;18.60;99.90
67897;DHT22;54698;48.428;9.964;2022-07-04T06:25:10;18.70;99.90
67897;DHT22;54698;48.428;9.964;2022-07-04T06:27:38;18.80;99.90
67897;DHT22;54698;48.428;9.964;2022-07-04T06:30:05;18.90;99.90
67897;DHT22;54698;48.428;9.964;2022-07-04T06:32:41;19.00;99.90
67897;DHT22;54698;48.428;9.964;2022-07-04T06:35:08;19.10;99.90
67897;DHT22;54698;48.428;9.964;2022-07-04T06:37:34;19.10;99.90
67897;DHT22;54698;48.428;9.964;2022-07-04T06:40:00;19.00;99.90
67897;DHT22;54698;48.428;9.964;2022-07-04T06:42:25;19.10;99.90
67897;DHT22;54698;48.428;9.964;2022-07-04T06:44:53;19.20;99.90
67897;DHT22;54698;48.428;9.964;2022-07-04T06:47:18;19.30;99.90
67897;DHT22;54698;48.428;9.964;2022-07-04T06:49:44;19.40;99.90
67897;DHT22;54698;48.428;9.964;2022-07-04T06:52:10;19.50;99.90
67897;DHT22;54698;48.428;9.964;2022-07-04T06:54:36;19.60;99.90
67897;DHT22;54698;48.428;9.964;2022-07-04T06:57:02;19.70;99.90
67897;DHT22;54698;48.428;9.964;2022-07-04T06:59:28;19.80;99.90
67897;DHT22;54698;48.428;9.964;2022-07-04T07:01:55;20.00;99.90
67897;DHT22;54698;48.428;9.964;2022-07-04T07:04:21;20.00;99.90
67897;DHT22;54698;48.428;9.964;2022-07-04T07:06:47;20.00;99.90
67897;DHT22;54698;48.428;9.964;2022-07-04T07:09:12;20.30;99.90
67897;DHT22;54698;48.428;9.964;2022-07-04T07:11:38;20.60;99.90
67897;DHT22;54698;48.428;9.964;2022-07-04T07:14:04;20.80;99.90
67897;DHT22;54698;48.428;9.964;2022-07-04T07:16:30;21.00;99.90
67897;DHT22;54698;48.428;9.964;2022-07-04T07:18:57;21.00;99.90
67897;DHT22;54698;48.428;9.964;2022-07-04T07:21:23;20.90;99.90
67897;DHT22;54698;48.428;9.964;2022-07-04T07:23:48;20.80;99.90
67897;DHT22;54698;48.428;9.964;2022-07-04T07:26:14;20.80;99.90
67897;DHT22;54698;48.428;9.964;2022-07-04T07:28:41;20.80;99.90
67897;DHT22;54698;48.428;9.964;2022-07-04T07:31:07;20.90;99.90
67897;DHT22;54698;48.428;9.964;2022-07-04T07:33:33;21.00;99.90
67897;DHT22;54698;48.428;9.964;2022-07-04T07:36:00;21.00;99.90
67897;DHT22;54698;48.428;9.964;2022-07-04T07:38:26;21.10;99.90
67897;DHT22;54698;48.428;9.964;2022-07-04T07:40:52;21.10;99.90
67897;DHT22;54698;48.428;9.964;2022-07-04T07:43:17;21.10;99.90
67897;DHT22;54698;48.428;9.964;2022-07-04T07:45:43;21.40;99.90
67897;DHT22;54698;48.428;9.964;2022-07-04T07:48:09;21.50;99.90
67897;DHT22;54698;48.428;9.964;2022-07-04T07:50:35;21.60;99.90
67897;DHT22;54698;48.428;9.964;2022-07-04T07:53:02;21.60;99.90
67897;DHT22;54698;48.428;9.964;2022-07-04T07:55:28;21.80;99.90
67897;DHT22;54698;48.428;9.964;2022-07-04T07:57:54;21.80;99.90
67897;DHT22;54698;48.428;9.964;2022-07-04T08:00:20;21.90;99.90
67897;DHT22;54698;48.428;9.964;2022-07-04T08:02:46;22.30;99.90
67897;DHT22;54698;48.428;9.964;2022-07-04T08:05:12;22.40;99.90
67897;DHT22;54698;48.428;9.964;2022-07-04T08:07:38;22.40;99.30
67897;DHT22;54698;48.428;9.964;2022-07-04T08:10:08;22.40;99.60
67897;DHT22;54698;48.428;9.964;2022-07-04T08:12:34;22.30;99.90
67897;DHT22;54698;48.428;9.964;2022-07-04T08:14:59;22.00;99.90
67897;DHT22;54698;48.428;9.964;2022-07-04T08:17:25;21.90;99.90
67897;DHT22;54698;48.428;9.964;2022-07-04T08:19:51;22.00;99.90
67897;DHT22;54698;48.428;9.964;2022-07-04T08:22:17;22.00;99.90
67897;DHT22;54698;48.428;9.964;2022-07-04T08:24:43;22.00;99.90
67897;DHT22;54698;48.428;9.964;2022-07-04T08:27:11;22.20;99.90
67897;DHT22;54698;48.428;9.964;2022-07-04T08:29:37;22.10;99.50
67897;DHT22;54698;48.428;9.964;2022-07-04T08:32:03;22.20;99.10
67897;DHT22;54698;48.428;9.964;2022-07-04T08:34:29;22.60;99.00
67897;DHT22;54698;48.428;9.964;2022-07-04T08:36:55;23.00;99.90
67897;DHT22;54698;48.428;9.964;2022-07-04T08:39:21;23.30;99.20
67897;DHT22;54698;48.428;9.964;2022-07-04T08:41:49;23.00;97.70
67897;DHT22;54698;48.428;9.964;2022-07-04T08:44:19;23.00;97.90
67897;DHT22;54698;48.428;9.964;2022-07-04T08:46:50;22.90;96.90
67897;DHT22;54698;48.428;9.964;2022-07-04T08:49:21;22.90;97.00
67897;DHT22;54698;48.428;9.964;2022-07-04T08:51:52;23.10;97.20
67897;DHT22;54698;48.428;9.964;2022-07-04T08:54:19;23.30;96.60
67897;DHT22;54698;48.428;9.964;2022-07-04T08:56:45;23.60;96.00
67897;DHT22;54698;48.428;9.964;2022-07-04T08:59:12;24.00;95.10
67897;DHT22;54698;48.428;9.964;2022-07-04T09:01:42;24.30;95.30
67897;DHT22;54698;48.428;9.964;2022-07-04T09:04:08;24.50;93.70
67897;DHT22;54698;48.428;9.964;2022-07-04T09:06:35;24.70;93.60
67897;DHT22;54698;48.428;9.964;2022-07-04T09:09:01;24.90;92.70
67897;DHT22;54698;48.428;9.964;2022-07-04T09:11:27;25.20;91.80
67897;DHT22;54698;48.428;9.964;2022-07-04T09:13:53;25.80;91.20
67897;DHT22;54698;48.428;9.964;2022-07-04T09:16:19;26.20;84.60
67897;DHT22;54698;48.428;9.964;2022-07-04T09:18:46;26.50;82.00
67897;DHT22;54698;48.428;9.964;2022-07-04T09:21:12;26.80;86.20
67897;DHT22;54698;48.428;9.964;2022-07-04T09:23:39;27.20;77.10
67897;DHT22;54698;48.428;9.964;2022-07-04T09:26:10;27.50;76.20
67897;DHT22;54698;48.428;9.964;2022-07-04T09:28:39;27.40;74.80
67897;DHT22;54698;48.428;9.964;2022-07-04T09:31:20;27.80;76.70
67897;DHT22;54698;48.428;9.964;2022-07-04T09:33:50;28.20;74.90
67897;DHT22;54698;48.428;9.964;2022-07-04T09:36:19;28.40;71.20
67897;DHT22;54698;48.428;9.964;2022-07-04T09:39:04;28.10;69.10
67897;DHT22;54698;48.428;9.964;2022-07-04T09:41:31;27.90;67.60
67897;DHT22;54698;48.428;9.964;2022-07-04T09:44:02;27.50;65.20
67897;DHT22;54698;48.428;9.964;2022-07-04T09:46:29;26.70;70.50
67897;DHT22;54698;48.428;9.964;2022-07-04T09:48:56;26.00;71.20
67897;DHT22;54698;48.428;9.964;2022-07-04T09:51:39;25.30;74.10
67897;DHT22;54698;48.428;9.964;2022-07-04T09:54:13;24.90;76.70
67897;DHT22;54698;48.428;9.964;2022-07-04T09:56:41;24.50;80.40
67897;DHT22;54698;48.428;9.964;2022-07-04T09:59:07;24.20;79.80
67897;DHT22;54698;48.428;9.964;2022-07-04T10:01:33;24.40;79.60
67897;DHT22;54698;48.428;9.964;2022-07-04T10:04:00;24.70;79.60
67897;DHT22;54698;48.428;9.964;2022-07-04T10:06:26;25.40;78.70
67897;DHT22;54698;48.428;9.964;2022-07-04T10:09:06;26.00;79.20
67897;DHT22;54698;48.428;9.964;2022-07-04T10:11:33;26.80;74.00
67897;DHT22;54698;48.428;9.964;2022-07-04T10:14:00;27.10;74.10
67897;DHT22;54698;48.428;9.964;2022-07-04T10:16:26;26.70;74.10
67897;DHT22;54698;48.428;9.964;2022-07-04T10:18:54;26.40;75.50
67897;DHT22;54698;48.428;9.964;2022-07-04T10:21:21;25.70;77.60
67897;DHT22;54698;48.428;9.964;2022-07-04T10:23:48;25.30;77.60
67897;DHT22;54698;48.428;9.964;2022-07-04T10:26:18;25.40;77.80
67897;DHT22;54698;48.428;9.964;2022-07-04T10:28:44;25.00;79.40
67897;DHT22;54698;48.428;9.964;2022-07-04T10:31:11;25.20;81.10
67897;DHT22;54698;48.428;9.964;2022-07-04T10:33:37;26.10;82.00
67897;DHT22;54698;48.428;9.964;2022-07-04T10:36:06;26.90;77.50
67897;DHT22;54698;48.428;9.964;2022-07-04T10:38:48;27.30;76.90
67897;DHT22;54698;48.428;9.964;2022-07-04T10:41:15;27.90;72.90
67897;DHT22;54698;48.428;9.964;2022-07-04T10:43:51;28.10;70.30
67897;DHT22;54698;48.428;9.964;2022-07-04T10:46:26;28.10;67.60
67897;DHT22;54698;48.428;9.964;2022-07-04T10:48:53;28.10;70.30
67897;DHT22;54698;48.428;9.964;2022-07-04T10:51:40;27.80;68.80
67897;DHT22;54698;48.428;9.964;2022-07-04T10:54:10;27.30;71.20
67897;DHT22;54698;48.428;9.964;2022-07-04T10:56:49;26.80;70.70
67897;DHT22;54698;48.428;9.964;2022-07-04T10:59:19;26.10;73.00
67897;DHT22;54698;48.428;9.964;2022-07-04T11:01:48;25.90;76.10
67897;DHT22;54698;48.428;9.964;2022-07-04T11:04:46;26.20;75.70
67897;DHT22;54698;48.428;9.964;2022-07-04T11:07:13;26.70;75.00
67897;DHT22;54698;48.428;9.964;2022-07-04T11:09:41;26.70;74.20
67897;DHT22;54698;48.428;9.964;2022-07-04T11:12:07;27.30;72.50
67897;DHT22;54698;48.428;9.964;2022-07-04T11:14:37;28.50;72.50
67897;DHT22;54698;48.428;9.964;2022-07-04T11:17:03;29.30;68.60
67897;DHT22;54698;48.428;9.964;2022-07-04T11:19:30;29.40;64.10
67897;DHT22;54698;48.428;9.964;2022-07-04T11:21:56;30.00;69.40
67897;DHT22;54698;48.428;9.964;2022-07-04T11:24:22;30.70;67.20
67897;DHT22;54698;48.428;9.964;2022-07-04T11:26:50;31.00;63.60
67897;DHT22;54698;48.428;9.964;2022-07-04T11:29:16;30.60;59.10
67897;DHT22;54698;48.428;9.964;2022-07-04T11:31:43;31.00;63.90
67897;DHT22;54698;48.428;9.964;2022-07-04T11:34:10;31.50;57.80
67897;DHT22;54698;48.428;9.964;2022-07-04T11:36:38;31.40;57.70
67897;DHT22;54698;48.428;9.964;2022-07-04T11:39:05;31.80;60.50
67897;DHT22;54698;48.428;9.964;2022-07-04T11:41:34;32.70;58.60
67897;DHT22;54698;48.428;9.964;2022-07-04T11:44:07;33.00;57.70
67897;DHT22;54698;48.428;9.964;2022-07-04T11:46:33;33.60;56.40
67897;DHT22;54698;48.428;9.964;2022-07-04T11:49:07;34.10;52.70
67897;DHT22;54698;48.428;9.964;2022-07-04T11:51:34;33.60;53.30
67897;DHT22;54698;48.428;9.964;2022-07-04T11:54:03;32.70;53.00
67897;DHT22;54698;48.428;9.964;2022-07-04T11:56:29;31.70;54.70
67897;DHT22;54698;48.428;9.964;2022-07-04T11:58:55;31.00;54.90
67897;DHT22;54698;48.428;9.964;2022-07-04T12:01:28;31.60;58.00
67897;DHT22;54698;48.428;9.964;2022-07-04T12:03:53;31.70;54.20
67897;DHT22;54698;48.428;9.964;2022-07-04T12:06:19;30.70;56.30
67897;DHT22;54698;48.428;9.964;2022-07-04T12:08:45;30.20;60.60
67897;DHT22;54698;48.428;9.964;2022-07-04T12:11:11;30.20;59.80
67897;DHT22;54698;48.428;9.964;2022-07-04T12:13:37;29.80;58.70
67897;DHT22;54698;48.428;9.964;2022-07-04T12:16:11;29.50;59.00
67897;DHT22;54698;48.428;9.964;2022-07-04T12:18:38;28.30;60.50
67897;DHT22;54698;48.428;9.964;2022-07-04T12:21:11;27.60;63.20
67897;DHT22;54698;48.428;9.964;2022-07-04T12:23:38;27.00;67.70
67897;DHT22;54698;48.428;9.964;2022-07-04T12:26:05;26.50;68.00
67897;DHT22;54698;48.428;9.964;2022-07-04T12:28:35;26.40;67.80
67897;DHT22;54698;48.428;9.964;2022-07-04T12:31:01;26.40;71.20
67897;DHT22;54698;48.428;9.964;2022-07-04T12:33:28;26.50;69.20
67897;DHT22;54698;48.428;9.964;2022-07-04T12:35:58;26.30;69.30
67897;DHT22;54698;48.428;9.964;2022-07-04T12:38:33;26.20;69.40
67897;DHT22;54698;48.428;9.964;2022-07-04T12:41:02;26.10;68.90
67897;DHT22;54698;48.428;9.964;2022-07-04T12:43:44;26.10;70.10
67897;DHT22;54698;48.428;9.964;2022-07-04T12:46:13;26.20;70.50
67897;DHT22;54698;48.428;9.964;2022-07-04T12:48:41;26.20;70.40
67897;DHT22;54698;48.428;9.964;2022-07-04T12:51:13;26.30;69.90
67897;DHT22;54698;48.428;9.964;2022-07-04T12:53:42;26.40;71.10
67897;DHT22;54698;48.428;9.964;2022-07-04T12:56:08;26.70;68.70
67897;DHT22;54698;48.428;9.964;2022-07-04T12:58:35;27.20;68.00
67897;DHT22;54698;48.428;9.964;2022-07-04T13:01:02;28.00;66.90
67897;DHT22;54698;48.428;9.964;2022-07-04T13:03:28;29.30;64.60
67897;DHT22;54698;48.428;9.964;2022-07-04T13:05:54;30.50;59.40
67897;DHT22;54698;48.428;9.964;2022-07-04T13:08:21;31.30;56.50
67897;DHT22;54698;48.428;9.964;2022-07-04T13:10:47;33.00;56.60
67897;DHT22;54698;48.428;9.964;2022-07-04T13:13:13;34.00;52.00
67897;DHT22;54698;48.428;9.964;2022-07-04T13:15:39;35.00;50.70
67897;DHT22;54698;48.428;9.964;2022-07-04T13:18:05;34.90;51.60
67897;DHT22;54698;48.428;9.964;2022-07-04T13:20:30;34.50;48.70
67897;DHT22;54698;48.428;9.964;2022-07-04T13:22:56;32.50;52.30
67897;DHT22;54698;48.428;9.964;2022-07-04T13:25:24;30.90;55.10
67897;DHT22;54698;48.428;9.964;2022-07-04T13:27:50;29.90;57.30
67897;DHT22;54698;48.428;9.964;2022-07-04T13:30:16;29.10;58.80
67897;DHT22;54698;48.428;9.964;2022-07-04T13:32:41;28.40;60.60
67897;DHT22;54698;48.428;9.964;2022-07-04T13:35:08;27.60;62.20
67897;DHT22;54698;48.428;9.964;2022-07-04T13:37:34;27.20;65.10
67897;DHT22;54698;48.428;9.964;2022-07-04T13:40:00;26.40;66.70
67897;DHT22;54698;48.428;9.964;2022-07-04T13:42:27;26.10;68.60
67897;DHT22;54698;48.428;9.964;2022-07-04T13:44:53;25.90;69.80
67897;DHT22;54698;48.428;9.964;2022-07-04T13:47:19;26.10;68.30
67897;DHT22;54698;48.428;9.964;2022-07-04T13:49:44;26.10;69.40
67897;DHT22;54698;48.428;9.964;2022-07-04T13:52:10;26.40;67.70
67897;DHT22;54698;48.428;9.964;2022-07-04T13:54:36;26.50;67.60
67897;DHT22;54698;48.428;9.964;2022-07-04T13:57:02;26.70;66.00
67897;DHT22;54698;48.428;9.964;2022-07-04T13:59:30;26.90;66.20
67897;DHT22;54698;48.428;9.964;2022-07-04T14:01:56;26.80;66.40
67897;DHT22;54698;48.428;9.964;2022-07-04T14:04:21;26.40;67.60
67897;DHT22;54698;48.428;9.964;2022-07-04T14:06:47;26.10;68.40
67897;DHT22;54698;48.428;9.964;2022-07-04T14:09:13;25.90;70.00
67897;DHT22;54698;48.428;9.964;2022-07-04T14:11:39;25.50;69.70
67897;DHT22;54698;48.428;9.964;2022-07-04T14:14:05;25.40;70.50
67897;DHT22;54698;48.428;9.964;2022-07-04T14:16:32;25.30;69.50
67897;DHT22;54698;48.428;9.964;2022-07-04T14:18:58;25.20;71.90
67897;DHT22;54698;48.428;9.964;2022-07-04T14:21:24;25.10;70.40
67897;DHT22;54698;48.428;9.964;2022-07-04T14:23:50;24.90;71.70
67897;DHT22;54698;48.428;9.964;2022-07-04T14:26:16;24.70;73.50
67897;DHT22;54698;48.428;9.964;2022-07-04T14:28:42;24.60;73.10
67897;DHT22;54698;48.428;9.964;2022-07-04T14:31:09;24.50;75.30
67897;DHT22;54698;48.428;9.964;2022-07-04T14:33:36;24.30;76.70
67897;DHT22;54698;48.428;9.964;2022-07-04T14:36:03;24.20;77.20
67897;DHT22;54698;48.428;9.964;2022-07-04T14:38:30;24.30;76.20
67897;DHT22;54698;48.428;9.964;2022-07-04T14:40:56;24.50;74.90
67897;DHT22;54698;48.428;9.964;2022-07-04T14:43:21;24.70;75.50
67897;DHT22;54698;48.428;9.964;2022-07-04T14:45:47;24.80;74.70
67897;DHT22;54698;48.428;9.964;2022-07-04T14:48:13;25.00;75.00
67897;DHT22;54698;48.428;9.964;2022-07-04T14:50:40;25.30;73.60
67897;DHT22;54698;48.428;9.964;2022-07-04T14:53:06;25.50;73.70
67897;DHT22;54698;48.428;9.964;2022-07-04T14:55:32;25.70;71.00
67897;DHT22;54698;48.428;9.964;2022-07-04T14:57:58;25.90;72.40
67897;DHT22;54698;48.428;9.964;2022-07-04T15:00:24;25.80;70.10
67897;DHT22;54698;48.428;9.964;2022-07-04T15:02:49;25.90;70.60
67897;DHT22;54698;48.428;9.964;2022-07-04T15:05:15;26.00;69.50
67897;DHT22;54698;48.428;9.964;2022-07-04T15:07:42;26.10;72.70
67897;DHT22;54698;48.428;9.964;2022-07-04T15:10:08;26.40;71.10
67897;DHT22;54698;48.428;9.964;2022-07-04T15:12:34;26.80;68.40
67897;DHT22;54698;48.428;9.964;2022-07-04T15:15:00;27.10;65.80
67897;DHT22;54698;48.428;9.964;2022-07-04T15:17:26;27.20;68.20
67897;DHT22;54698;48.428;9.964;2022-07-04T15:19:52;27.10;65.70
67897;DHT22;54698;48.428;9.964;2022-07-04T15:22:18;26.90;66.40
67897;DHT22;54698;48.428;9.964;2022-07-04T15:24:50;26.70;65.10
67897;DHT22;54698;48.428;9.964;2022-07-04T15:27:16;26.50;67.40